createdAt,value
2022-11-29T00:04:13.142Z,100306.97
2022-11-29T00:09:14.501Z,100310.41
2022-11-29T00:14:17.108Z,100309.59
2022-11-29T00:19:19.609Z,100300.09
2022-11-29T00:24:20.502Z,100304.41
2022-11-29T00:29:21.396Z,100296.63
2022-11-29T00:34:23.545Z,100295.75
2022-11-29T00:39:24.399Z,100296.66
2022-11-29T00:44:25.169Z,100303.53
2022-11-29T00:49:27.322Z,100300.97
2022-11-29T00:54:28.175Z,100300.94
2022-11-29T00:59:30.321Z,100300.13
2022-11-29T01:04:32.500Z,100298.38
2022-11-29T01:09:33.329Z,100295.81
2022-11-29T01:14:34.155Z,100300.97
2022-11-29T01:19:36.358Z,100299.25
2022-11-29T01:24:37.162Z,100300.09
2022-11-29T01:29:38.016Z,100307.84
2022-11-29T01:34:40.701Z,100307.00
2022-11-29T01:39:41.486Z,100311.31
2022-11-29T01:45:02.224Z,100306.13
2022-11-29T01:50:05.554Z,100306.16
2022-11-29T01:55:08.262Z,100312.19
2022-11-29T02:00:12.904Z,100313.03
2022-11-29T02:05:17.910Z,100310.44
2022-11-29T02:10:19.178Z,100315.63
2022-11-29T02:15:33.459Z,100321.63
2022-11-29T02:21:03.447Z,100323.34
2022-11-29T02:26:20.554Z,100317.31
2022-11-29T02:32:01.071Z,100325.03
2022-11-29T02:37:23.458Z,100331.06
2022-11-29T02:42:56.037Z,100326.72
2022-11-29T02:48:13.715Z,100332.72
2022-11-29T02:53:25.849Z,100339.56
2022-11-29T02:58:32.622Z,100344.72
2022-11-29T03:03:39.656Z,100339.53
2022-11-29T03:08:51.285Z,100343.88
2022-11-29T03:13:59.415Z,100343.00
2022-11-29T03:19:06.969Z,100359.31
2022-11-29T03:24:15.747Z,100357.59
2022-11-29T03:29:26.070Z,100361.88
2022-11-29T03:34:37.960Z,100367.06
2022-11-29T03:39:50.473Z,100366.16
2022-11-29T03:44:58.328Z,100375.63
2022-11-29T03:50:04.700Z,100376.50
2022-11-29T03:55:20.644Z,100372.19
2022-11-29T04:00:22.424Z,100379.94
2022-11-29T04:05:40.935Z,100381.66
2022-11-29T04:11:08.965Z,100373.91
2022-11-29T04:16:57.588Z,100370.47
2022-11-29T04:22:21.622Z,100372.19
2022-11-29T04:27:42.465Z,100382.50
2022-11-29T04:33:26.581Z,100386.81
2022-11-29T04:38:38.392Z,100393.69
2022-11-29T04:43:55.534Z,100395.41
2022-11-29T04:49:19.194Z,100402.28
2022-11-29T04:54:28.858Z,100402.28
2022-11-29T04:59:40.241Z,100399.72
2022-11-29T05:04:52.166Z,100399.72
2022-11-29T05:10:03.899Z,100410.00
2022-11-29T05:15:45.957Z,100407.47
2022-11-29T05:20:54.699Z,100419.50
2022-11-29T05:26:02.103Z,100421.19
2022-11-29T05:31:26.980Z,100428.13
2022-11-29T05:36:39.983Z,100432.41
2022-11-29T05:41:54.596Z,100424.66
2022-11-29T05:47:00.512Z,100431.56
2022-11-29T05:52:19.072Z,100431.56
2022-11-29T05:57:41.253Z,100435.00
2022-11-29T06:02:54.734Z,100445.28
2022-11-29T06:08:03.034Z,100447.03
2022-11-29T06:13:17.382Z,100444.44
2022-11-29T06:18:48.571Z,100448.75
2022-11-29T06:24:25.925Z,100459.06
2022-11-29T06:29:35.014Z,100462.53
2022-11-29T06:34:48.050Z,100471.97
2022-11-29T06:39:49.654Z,100472.84
2022-11-29T06:44:50.885Z,100481.47
2022-11-29T06:49:59.248Z,100484.91
2022-11-29T06:55:18.842Z,100488.34
2022-11-29T07:00:22.360Z,100487.47
2022-11-29T07:05:28.501Z,100494.34
2022-11-29T07:10:32.119Z,100489.19
2022-11-29T07:15:33.646Z,100496.06
2022-11-29T07:20:44.883Z,100497.78
2022-11-29T07:26:00.972Z,100508.97
2022-11-29T07:31:10.217Z,100513.34
2022-11-29T07:36:19.407Z,100512.38
2022-11-29T07:41:28.704Z,100527.13
2022-11-29T07:46:29.614Z,100531.44
2022-11-29T07:51:33.022Z,100533.19
2022-11-29T07:56:33.852Z,100537.47
2022-11-29T08:01:34.923Z,100544.44
2022-11-29T08:06:37.569Z,100544.41
2022-11-29T08:11:38.361Z,100540.22
2022-11-29T08:16:39.167Z,100548.00
2022-11-29T08:21:46.981Z,100551.47
2022-11-29T08:26:47.840Z,100545.44
2022-11-29T08:31:53.314Z,100543.66
2022-11-29T08:36:57.268Z,100555.88
2022-11-29T08:41:58.092Z,100553.31
2022-11-29T08:47:16.310Z,100553.38
2022-11-29T08:52:35.843Z,100558.50
2022-11-29T08:57:41.003Z,100556.81
2022-11-29T09:02:42.186Z,100564.56
2022-11-29T09:07:44.444Z,100566.34
2022-11-29T09:12:45.724Z,100577.56
2022-11-29T09:17:46.611Z,100580.16
2022-11-29T09:22:48.727Z,100579.31
2022-11-29T09:27:49.540Z,100580.19
2022-11-29T09:32:50.305Z,100581.09
2022-11-29T09:37:52.520Z,100579.41
2022-11-29T09:43:01.679Z,100579.44
2022-11-29T09:48:37.252Z,100578.59
2022-11-29T09:53:57.910Z,100580.34
2022-11-29T09:59:01.239Z,100585.44
2022-11-29T10:04:05.205Z,100581.22
2022-11-29T10:09:15.807Z,100582.09
2022-11-29T10:14:20.667Z,100582.06
2022-11-29T10:19:28.715Z,100583.84
2022-11-29T10:24:32.539Z,100576.09
2022-11-29T10:29:34.377Z,100581.25
2022-11-29T10:34:35.277Z,100570.91
2022-11-29T10:39:43.066Z,100575.25
2022-11-29T10:44:44.309Z,100576.94
2022-11-29T10:49:45.388Z,100576.97
2022-11-29T10:54:49.698Z,100575.22
2022-11-29T11:00:01.585Z,100581.25
2022-11-29T11:05:02.673Z,100588.16
2022-11-29T11:10:08.080Z,100588.16
2022-11-29T11:15:27.574Z,100595.06
2022-11-29T11:20:31.590Z,100586.44
2022-11-29T11:25:36.104Z,100593.31
2022-11-29T11:30:37.133Z,100588.16
2022-11-29T11:35:37.983Z,100592.47
2022-11-29T11:40:40.834Z,100596.75
2022-11-29T11:45:41.736Z,100588.19
2022-11-29T11:50:45.800Z,100595.09
2022-11-29T11:56:00.210Z,100597.66
2022-11-29T12:01:15.192Z,100590.78
2022-11-29T12:06:28.362Z,100590.78
2022-11-29T12:11:38.021Z,100597.69
2022-11-29T12:16:41.563Z,100601.16
2022-11-29T12:21:48.217Z,100608.94
2022-11-29T12:26:58.990Z,100601.16
2022-11-29T12:32:19.871Z,100608.91
2022-11-29T12:37:26.395Z,100604.59
2022-11-29T12:42:41.832Z,100605.44
2022-11-29T12:47:53.475Z,100620.13
2022-11-29T12:53:06.142Z,100620.97
2022-11-29T12:58:15.195Z,100617.56
2022-11-29T13:03:23.805Z,100624.44
2022-11-29T13:08:58.436Z,100630.50
2022-11-29T13:14:41.112Z,100628.75
2022-11-29T13:19:37.942Z,100633.94
2022-11-29T13:24:43.578Z,100639.91
2022-11-29T13:29:46.564Z,100636.50
2022-11-29T13:34:50.528Z,100650.31
2022-11-29T13:40:06.432Z,100649.44
2022-11-29T13:45:22.589Z,100652.81
2022-11-29T13:50:39.869Z,100654.59
2022-11-29T13:55:46.758Z,100664.00
2022-11-29T14:00:53.109Z,100663.16
2022-11-29T14:06:04.234Z,100668.28
2022-11-29T14:11:10.137Z,100668.31
2022-11-29T14:16:20.820Z,100664.81
2022-11-29T14:21:21.644Z,100666.47
2022-11-29T14:26:31.489Z,100665.56
2022-11-29T14:31:52.105Z,100672.50
2022-11-29T14:37:00.346Z,100668.16
2022-11-29T14:42:14.718Z,100675.06
2022-11-29T14:47:24.060Z,100671.56
2022-11-29T14:52:30.755Z,100676.69
2022-11-29T14:58:06.038Z,100680.13
2022-11-29T15:03:13.839Z,100681.84
2022-11-29T15:08:18.915Z,100687.03
2022-11-29T15:13:27.092Z,100693.00
2022-11-29T15:19:00.867Z,100695.50
2022-11-29T15:24:10.563Z,100699.00
2022-11-29T15:29:15.139Z,100704.13
2022-11-29T15:34:23.840Z,100718.78
2022-11-29T15:39:35.339Z,100716.19
2022-11-29T15:44:36.150Z,100723.09
2022-11-29T15:49:38.355Z,100717.00
2022-11-29T15:54:43.232Z,100730.78
2022-11-29T15:59:49.178Z,100734.13
2022-11-29T16:04:54.897Z,100737.66
2022-11-29T16:09:59.394Z,100747.84
2022-11-29T16:15:02.097Z,100742.66
2022-11-29T16:20:24.772Z,100747.13
2022-11-29T16:25:27.045Z,100753.94
2022-11-29T16:30:31.789Z,100754.84
2022-11-29T16:35:34.911Z,100763.50
2022-11-29T16:40:36.251Z,100777.22
2022-11-29T16:45:38.783Z,100783.25
2022-11-29T16:50:42.019Z,100782.38
2022-11-29T16:55:42.813Z,100782.38
2022-11-29T17:00:43.673Z,100782.44
2022-11-29T17:05:45.963Z,100788.47
2022-11-29T17:10:46.797Z,100791.94
2022-11-29T17:15:47.637Z,100791.06
2022-11-29T17:20:49.869Z,100796.25
2022-11-29T17:25:57.500Z,100801.41
2022-11-29T17:30:58.357Z,100803.13
2022-11-29T17:36:06.950Z,100797.94
2022-11-29T17:41:08.959Z,100799.75
2022-11-29T17:46:10.474Z,100815.09
2022-11-29T17:51:29.269Z,100817.22
2022-11-29T17:56:34.698Z,100830.13
2022-11-29T18:01:37.134Z,100823.13
2022-11-29T18:06:41.444Z,100825.69
2022-11-29T18:11:48.685Z,100823.91
2022-11-29T18:16:50.559Z,100833.38
2022-11-29T18:21:52.886Z,100833.44
2022-11-29T18:26:53.732Z,100837.72
2022-11-29T18:31:54.556Z,100837.56
2022-11-29T18:36:56.713Z,100837.44
2022-11-29T18:41:57.543Z,100834.88
2022-11-29T18:46:58.549Z,100837.56
2022-11-29T18:52:00.693Z,100847.84
2022-11-29T18:57:01.511Z,100838.38
2022-11-29T19:02:02.300Z,100841.00
2022-11-29T19:07:04.464Z,100852.13
2022-11-29T19:12:05.969Z,100843.59
2022-11-29T19:17:06.849Z,100844.38
2022-11-29T19:22:09.004Z,100852.28
2022-11-29T19:27:09.831Z,100857.28
2022-11-29T19:32:10.593Z,100865.91
2022-11-29T19:37:12.754Z,100860.75
2022-11-29T19:42:13.545Z,100855.56
2022-11-29T19:47:14.373Z,100868.47
2022-11-29T19:52:16.576Z,100869.34
2022-11-29T19:57:17.391Z,100871.06
2022-11-29T20:02:18.277Z,100871.72
2022-11-29T20:07:20.638Z,100862.34
2022-11-29T20:12:21.497Z,100877.00
2022-11-29T20:17:22.317Z,100884.75
2022-11-29T20:22:24.480Z,100895.97
2022-11-29T20:27:25.397Z,100894.13
2022-11-29T20:32:26.402Z,100894.03
2022-11-29T20:37:49.399Z,100896.75
2022-11-29T20:43:12.944Z,100893.28
2022-11-29T20:48:18.086Z,100894.03
2022-11-29T20:53:31.620Z,100899.09
2022-11-29T20:58:32.517Z,100905.75
2022-11-29T21:03:33.338Z,100906.41
2022-11-29T21:08:36.075Z,100905.50
2022-11-29T21:13:38.116Z,100899.50
2022-11-29T21:18:39.635Z,100902.91
2022-11-29T21:24:00.116Z,100904.63
2022-11-29T21:29:13.618Z,100913.88
2022-11-29T21:34:14.469Z,100919.88
2022-11-29T21:39:17.176Z,100914.72
2022-11-29T21:44:18.011Z,100918.25
2022-11-29T21:49:18.830Z,100920.75
2022-11-29T21:54:20.971Z,100916.47
2022-11-29T21:59:22.051Z,100924.34
2022-11-29T22:04:25.142Z,100920.91
2022-11-29T22:09:27.273Z,100913.97
2022-11-29T22:14:28.110Z,100910.50
2022-11-29T22:19:30.870Z,100916.56
2022-11-29T22:24:35.323Z,100921.75
2022-11-29T22:29:36.148Z,100918.31
2022-11-29T22:34:37.632Z,100922.69
2022-11-29T22:39:39.819Z,100920.91
2022-11-29T22:44:41.224Z,100919.31
2022-11-29T22:49:42.130Z,100921.03
2022-11-29T22:54:44.412Z,100918.47
2022-11-29T22:59:45.378Z,100920.13
2022-11-29T23:04:46.418Z,100922.63
2022-11-29T23:09:48.702Z,100926.91
2022-11-29T23:14:55.799Z,100922.69
2022-11-29T23:19:57.255Z,100927.84
2022-11-29T23:24:59.393Z,100937.22
2022-11-29T23:30:00.202Z,100934.69
2022-11-29T23:35:01.013Z,100929.53
2022-11-29T23:40:03.123Z,100931.31
2022-11-29T23:45:03.969Z,100926.06
2022-11-29T23:50:05.133Z,100930.41
2022-11-29T23:55:07.903Z,100925.31
